createdAt,value
2022-09-14T00:01:28.894Z,28.52
2022-09-14T00:03:58.502Z,27.70
2022-09-14T00:06:26.244Z,27.63
2022-09-14T00:08:55.294Z,27.38
2022-09-14T00:11:24.021Z,28.77
2022-09-14T00:13:51.532Z,29.58
2022-09-14T00:16:21.940Z,28.65
2022-09-14T00:18:57.582Z,28.98
2022-09-14T00:21:24.989Z,29.05
2022-09-14T00:23:51.766Z,28.17
2022-09-14T00:26:21.636Z,28.08
2022-09-14T00:31:20.189Z,29.70
2022-09-14T00:33:48.578Z,30.13
2022-09-14T00:36:27.265Z,29.48
2022-09-14T00:38:56.832Z,29.98
2022-09-14T00:41:27.597Z,29.63
2022-09-14T00:44:13.065Z,29.55
2022-09-14T00:46:48.371Z,40.30
2022-09-14T00:49:30.198Z,24.65
2022-09-14T00:52:04.106Z,23.45
2022-09-14T00:54:31.571Z,23.58
2022-09-14T00:57:01.647Z,22.20
2022-09-14T00:59:31.749Z,22.60
2022-09-14T01:01:58.903Z,24.55
2022-09-14T01:04:26.380Z,21.90
2022-09-14T01:07:03.476Z,22.27
2022-09-14T01:09:44.431Z,21.15
2022-09-14T01:12:30.339Z,21.92
2022-09-14T01:15:46.322Z,19.17
2022-09-14T01:18:20.713Z,19.00
2022-09-14T01:20:50.726Z,18.52
2022-09-14T01:23:47.895Z,18.23
2022-09-14T01:26:26.515Z,19.25
2022-09-14T01:29:13.845Z,18.13
2022-09-14T01:31:48.196Z,22.52
2022-09-14T01:34:55.365Z,18.45
2022-09-14T01:37:31.505Z,18.52
2022-09-14T01:40:11.703Z,22.30
2022-09-14T01:42:42.584Z,19.88
2022-09-14T01:45:13.489Z,18.23
2022-09-14T01:47:47.408Z,18.58
2022-09-14T01:50:26.306Z,17.92
2022-09-14T01:52:59.703Z,19.43
2022-09-14T01:55:33.369Z,18.48
2022-09-14T01:58:08.430Z,18.45
2022-09-14T02:00:40.025Z,20.25
2022-09-14T02:03:29.691Z,17.88
2022-09-14T02:06:06.661Z,18.45
2022-09-14T02:08:34.517Z,19.20
2022-09-14T02:11:02.109Z,18.73
2022-09-14T02:13:29.533Z,19.25
2022-09-14T02:15:56.399Z,18.85
2022-09-14T02:18:23.167Z,18.48
2022-09-14T02:21:00.561Z,17.58
2022-09-14T02:23:27.865Z,18.15
2022-09-14T02:25:54.935Z,25.67
2022-09-14T02:28:22.299Z,24.98
2022-09-14T02:31:27.637Z,23.90
2022-09-14T02:34:06.258Z,29.05
2022-09-14T02:36:48.309Z,30.63
2022-09-14T02:39:22.655Z,30.98
2022-09-14T02:41:57.040Z,33.28
2022-09-14T02:44:39.227Z,31.92
2022-09-14T02:47:37.750Z,30.20
2022-09-14T02:50:21.190Z,32.22
2022-09-14T02:53:06.394Z,31.55
2022-09-14T02:55:37.816Z,30.05
2022-09-14T02:58:09.868Z,28.40
2022-09-14T03:00:41.178Z,27.88
2022-09-14T03:03:10.728Z,26.10
2022-09-14T03:05:38.063Z,26.52
2022-09-14T03:08:05.124Z,25.77
2022-09-14T03:10:32.684Z,26.58
2022-09-14T03:12:59.455Z,25.00
2022-09-14T03:15:27.434Z,23.85
2022-09-14T03:17:54.469Z,25.35
2022-09-14T03:20:26.917Z,23.90
2022-09-14T03:22:54.160Z,22.80
2022-09-14T03:25:23.241Z,22.48
2022-09-14T03:27:51.237Z,20.63
2022-09-14T03:30:19.519Z,23.02
2022-09-14T03:32:46.514Z,20.38
2022-09-14T03:35:13.970Z,18.90
2022-09-14T03:37:42.502Z,19.42
2022-09-14T03:40:11.827Z,20.92
2022-09-14T03:42:44.217Z,18.75
2022-09-14T03:45:12.354Z,18.70
2022-09-14T03:47:39.852Z,19.95
2022-09-14T03:50:08.582Z,21.50
2022-09-14T03:52:36.684Z,23.30
2022-09-14T03:55:05.484Z,24.33
2022-09-14T03:57:33.067Z,26.15
2022-09-14T03:59:59.826Z,27.13
2022-09-14T04:02:29.399Z,27.63
2022-09-14T04:04:56.230Z,28.45
2022-09-14T04:07:23.015Z,24.83
2022-09-14T04:09:49.776Z,23.83
2022-09-14T04:12:16.658Z,24.63
2022-09-14T04:14:43.382Z,25.77
2022-09-14T04:17:10.077Z,25.08
2022-09-14T04:19:38.304Z,25.17
2022-09-14T04:22:05.482Z,24.08
2022-09-14T04:24:32.289Z,23.27
2022-09-14T04:26:59.181Z,23.75
2022-09-14T04:29:26.126Z,21.77
2022-09-14T04:31:52.875Z,23.17
2022-09-14T04:34:19.696Z,21.13
2022-09-14T04:36:46.513Z,23.80
2022-09-14T04:39:14.037Z,26.90
2022-09-14T04:41:41.312Z,24.77
2022-09-14T04:44:08.012Z,22.17
2022-09-14T04:46:40.068Z,23.00
2022-09-14T04:49:10.441Z,20.85
2022-09-14T04:51:37.916Z,20.70
2022-09-14T04:54:07.177Z,20.63
2022-09-14T04:56:35.950Z,20.77
2022-09-14T04:59:04.566Z,22.75
2022-09-14T05:01:37.257Z,26.52
2022-09-14T05:04:05.272Z,25.15
2022-09-14T05:06:35.281Z,23.05
2022-09-14T05:09:03.986Z,23.13
2022-09-14T05:11:33.085Z,22.65
2022-09-14T05:14:01.144Z,21.90
2022-09-14T05:16:30.694Z,23.30
2022-09-14T05:19:01.367Z,22.25
2022-09-14T05:21:29.802Z,23.92
2022-09-14T05:23:58.868Z,24.38
2022-09-14T05:26:27.384Z,27.75
2022-09-14T05:28:56.426Z,26.95
2022-09-14T05:31:24.916Z,27.25
2022-09-14T05:33:52.976Z,27.17
2022-09-14T05:36:20.039Z,30.50
2022-09-14T05:38:47.076Z,29.85
2022-09-14T05:41:15.769Z,29.00
2022-09-14T05:43:43.477Z,30.05
2022-09-14T05:46:12.588Z,30.92
2022-09-14T05:48:40.026Z,32.30
2022-09-14T05:51:14.142Z,34.25
2022-09-14T05:53:41.147Z,35.05
2022-09-14T05:56:10.500Z,33.72
2022-09-14T05:58:38.910Z,69.32
2022-09-14T06:01:16.014Z,33.17
2022-09-14T06:03:44.086Z,32.42
2022-09-14T06:06:12.703Z,52.60
2022-09-14T06:08:39.817Z,33.25
2022-09-14T06:11:15.257Z,33.35
2022-09-14T06:13:42.341Z,34.20
2022-09-14T06:16:11.971Z,73.80
2022-09-14T06:18:40.137Z,36.88
2022-09-14T06:21:08.246Z,38.72
2022-09-14T06:23:35.554Z,38.00
2022-09-14T06:26:04.656Z,39.45
2022-09-14T06:28:32.273Z,39.55
2022-09-14T06:30:59.345Z,38.05
2022-09-14T06:33:26.226Z,37.90
2022-09-14T06:36:00.247Z,36.28
2022-09-14T06:38:28.679Z,36.70
2022-09-14T06:41:00.437Z,35.92
2022-09-14T06:43:32.113Z,78.50
2022-09-14T06:46:01.498Z,62.00
2022-09-14T06:48:31.070Z,37.10
2022-09-14T06:50:58.543Z,33.97
2022-09-14T06:53:25.836Z,28.05
2022-09-14T06:55:52.861Z,30.52
2022-09-14T06:58:19.733Z,36.97
2022-09-14T07:00:46.476Z,41.05
2022-09-14T07:03:13.226Z,41.92
2022-09-14T07:05:40.095Z,41.83
2022-09-14T07:08:11.450Z,45.65
2022-09-14T07:10:38.923Z,41.80
2022-09-14T07:13:05.768Z,41.88
2022-09-14T07:15:33.457Z,37.80
2022-09-14T07:18:00.309Z,35.15
2022-09-14T07:20:27.242Z,31.52
2022-09-14T07:22:53.945Z,25.40
2022-09-14T07:25:20.683Z,47.70
2022-09-14T07:27:47.724Z,46.65
2022-09-14T07:30:14.635Z,46.95
2022-09-14T07:32:41.388Z,43.13
2022-09-14T07:35:08.844Z,31.13
2022-09-14T07:37:35.759Z,32.97
2022-09-14T07:40:02.694Z,33.05
2022-09-14T07:42:29.620Z,29.80
2022-09-14T07:44:56.452Z,44.00
2022-09-14T07:47:23.144Z,32.28
2022-09-14T07:49:50.013Z,33.35
2022-09-14T07:52:16.725Z,36.90
2022-09-14T07:54:43.476Z,35.80
2022-09-14T07:57:10.336Z,35.50
2022-09-14T07:59:37.592Z,33.20
2022-09-14T08:02:09.061Z,33.75
2022-09-14T08:04:36.445Z,36.90
2022-09-14T08:07:03.923Z,34.88
2022-09-14T08:09:30.825Z,37.17
2022-09-14T08:11:58.313Z,35.45
2022-09-14T08:14:25.541Z,84.22
2022-09-14T08:16:52.520Z,38.20
2022-09-14T08:19:21.179Z,39.55
2022-09-14T08:21:48.289Z,46.63
2022-09-14T08:24:17.715Z,62.85
2022-09-14T08:26:44.870Z,36.58
2022-09-14T08:29:18.933Z,37.50
2022-09-14T08:31:47.297Z,32.65
2022-09-14T08:34:15.825Z,36.10
2022-09-14T08:36:44.115Z,38.42
2022-09-14T08:39:13.619Z,37.42
2022-09-14T08:41:49.969Z,33.80
2022-09-14T08:44:24.917Z,33.33
2022-09-14T08:47:07.428Z,34.35
2022-09-14T08:49:47.936Z,32.28
2022-09-14T08:52:40.904Z,31.95
2022-09-14T08:55:17.971Z,27.98
2022-09-14T08:57:54.129Z,28.05
2022-09-14T09:00:30.319Z,39.35
2022-09-14T09:03:12.695Z,31.70
2022-09-14T09:05:47.591Z,37.55
2022-09-14T09:08:30.433Z,33.80
2022-09-14T09:11:00.791Z,34.92
2022-09-14T09:13:33.639Z,48.85
2022-09-14T09:16:05.059Z,32.08
2022-09-14T09:18:51.858Z,32.72
2022-09-14T09:21:25.497Z,53.05
2022-09-14T09:23:56.090Z,36.53
2022-09-14T09:26:29.003Z,32.47
2022-09-14T09:28:59.654Z,30.83
2022-09-14T09:31:32.907Z,30.92
2022-09-14T09:34:00.971Z,32.20
2022-09-14T09:36:36.692Z,32.63
2022-09-14T09:39:05.493Z,33.38
2022-09-14T09:41:44.837Z,33.30
2022-09-14T09:44:11.973Z,33.83
2022-09-14T09:46:54.120Z,32.65
2022-09-14T09:49:25.867Z,33.78
2022-09-14T09:51:54.185Z,32.47
2022-09-14T09:54:21.089Z,32.72
2022-09-14T09:57:03.225Z,32.10
2022-09-14T09:59:35.913Z,30.00
2022-09-14T10:02:24.702Z,30.73
2022-09-14T10:05:00.841Z,29.30
2022-09-14T10:07:29.899Z,27.08
2022-09-14T10:10:16.617Z,23.60
2022-09-14T10:12:55.693Z,22.73
2022-09-14T10:15:30.910Z,22.90
2022-09-14T10:18:12.804Z,21.40
2022-09-14T10:20:43.294Z,20.98
2022-09-14T10:23:31.577Z,21.17
2022-09-14T10:26:13.476Z,20.27
2022-09-14T10:28:48.877Z,21.17
2022-09-14T10:31:16.076Z,21.60
2022-09-14T10:33:43.065Z,21.25
2022-09-14T10:36:29.506Z,21.73
2022-09-14T10:39:26.268Z,23.63
2022-09-14T10:42:14.561Z,17.50
2022-09-14T10:45:10.008Z,20.10
2022-09-14T10:48:07.482Z,16.40
2022-09-14T10:51:06.273Z,14.27
2022-09-14T10:53:42.129Z,18.30
2022-09-14T10:56:17.317Z,15.43
2022-09-14T10:59:21.604Z,14.02
2022-09-14T11:02:13.310Z,13.85
2022-09-14T11:05:04.990Z,14.10
2022-09-14T11:07:37.535Z,13.23
2022-09-14T11:10:22.768Z,14.48
2022-09-14T11:12:49.426Z,13.88
2022-09-14T11:15:20.859Z,17.73
2022-09-14T11:18:12.239Z,18.92
2022-09-14T11:20:52.837Z,15.23
2022-09-14T11:23:48.288Z,13.75
2022-09-14T11:26:22.589Z,14.32
2022-09-14T11:28:56.129Z,14.10
2022-09-14T11:31:33.347Z,14.23
2022-09-14T11:34:33.398Z,14.20
2022-09-14T11:37:06.991Z,15.20
2022-09-14T11:40:03.388Z,14.88
2022-09-14T11:42:44.770Z,13.30
2022-09-14T11:45:23.748Z,12.23
2022-09-14T11:47:59.775Z,12.00
2022-09-14T11:50:30.780Z,10.95
2022-09-14T11:53:24.449Z,11.60
2022-09-14T11:55:51.532Z,12.18
2022-09-14T11:58:21.940Z,11.68
2022-09-14T12:01:26.994Z,10.88
2022-09-14T12:04:15.033Z,11.45
2022-09-14T12:06:54.836Z,11.98
2022-09-14T12:09:21.502Z,9.85
2022-09-14T12:11:49.720Z,13.57
2022-09-14T12:14:29.037Z,10.48
2022-09-14T12:17:38.438Z,11.27
2022-09-14T12:20:30.608Z,10.63
2022-09-14T12:23:27.108Z,9.90
2022-09-14T12:25:53.853Z,10.60
2022-09-14T12:28:35.402Z,10.35
2022-09-14T12:31:05.260Z,9.60
2022-09-14T12:33:32.314Z,10.43
2022-09-14T12:36:06.033Z,12.13
2022-09-14T12:38:38.634Z,9.80
2022-09-14T12:41:08.430Z,9.68
2022-09-14T12:43:35.437Z,9.70
2022-09-14T12:46:20.316Z,9.27
2022-09-14T12:48:51.196Z,9.25
2022-09-14T12:51:27.093Z,11.27
2022-09-14T12:54:09.219Z,12.13
2022-09-14T12:56:42.813Z,9.40
2022-09-14T12:59:18.159Z,9.27
2022-09-14T13:02:14.637Z,12.68
2022-09-14T13:04:42.395Z,10.85
2022-09-14T13:07:19.810Z,9.02
2022-09-14T13:09:52.619Z,8.05
2022-09-14T13:12:30.285Z,8.27
2022-09-14T13:15:01.092Z,8.95
2022-09-14T13:17:28.252Z,8.63
2022-09-14T13:19:57.136Z,8.15
2022-09-14T13:22:26.709Z,9.00
2022-09-14T13:24:54.106Z,8.43
2022-09-14T13:27:31.570Z,7.53
2022-09-14T13:30:24.262Z,7.88
2022-09-14T13:32:54.745Z,7.85
2022-09-14T13:35:27.235Z,8.52
2022-09-14T13:37:54.458Z,8.32
2022-09-14T13:40:28.630Z,8.95
2022-09-14T13:42:56.914Z,8.90
2022-09-14T13:45:24.799Z,8.43
2022-09-14T13:47:53.605Z,7.97
2022-09-14T13:50:24.258Z,7.97
2022-09-14T13:53:02.076Z,8.13
2022-09-14T13:55:43.106Z,8.37
2022-09-14T13:58:09.863Z,9.27
2022-09-14T14:00:55.617Z,7.88
2022-09-14T14:03:37.039Z,7.95
2022-09-14T14:06:27.277Z,7.75
2022-09-14T14:08:59.089Z,7.90
2022-09-14T14:11:33.557Z,8.48
2022-09-14T14:14:13.856Z,8.25
2022-09-14T14:16:41.330Z,8.73
2022-09-14T14:19:28.042Z,8.35
2022-09-14T14:22:15.377Z,10.57
2022-09-14T14:25:09.235Z,8.75
2022-09-14T14:27:33.648Z,8.65
2022-09-14T14:30:02.336Z,8.45
2022-09-14T14:32:29.450Z,10.07
2022-09-14T14:34:56.309Z,7.97
2022-09-14T14:37:23.261Z,8.70
2022-09-14T14:39:50.332Z,9.00
2022-09-14T14:42:18.202Z,9.20
2022-09-14T14:44:45.421Z,7.95
2022-09-14T14:47:16.103Z,9.05
2022-09-14T14:49:42.928Z,8.05
2022-09-14T14:52:10.397Z,9.02
2022-09-14T14:54:37.371Z,8.35
2022-09-14T14:57:04.736Z,9.45
2022-09-14T14:59:32.206Z,7.80
2022-09-14T15:01:58.891Z,7.93
2022-09-14T15:04:26.374Z,7.85
2022-09-14T15:06:53.668Z,8.02
2022-09-14T15:09:26.352Z,9.40
2022-09-14T15:12:13.555Z,7.32
2022-09-14T15:14:40.398Z,8.70
2022-09-14T15:17:07.296Z,7.63
2022-09-14T15:19:33.988Z,7.53
2022-09-14T15:22:01.773Z,8.20
2022-09-14T15:24:29.362Z,9.15
2022-09-14T15:26:56.143Z,9.45
2022-09-14T15:29:22.952Z,8.75
2022-09-14T15:31:49.753Z,9.15
2022-09-14T15:34:16.445Z,8.63
2022-09-14T15:36:50.523Z,8.85
2022-09-14T15:39:20.228Z,7.95
2022-09-14T15:41:47.413Z,9.93
2022-09-14T15:44:15.719Z,8.43
2022-09-14T15:46:44.618Z,8.02
2022-09-14T15:49:13.860Z,9.07
2022-09-14T15:51:45.179Z,9.20
2022-09-14T15:54:13.060Z,11.13
2022-09-14T15:56:39.873Z,7.88
2022-09-14T15:59:07.004Z,8.00
2022-09-14T16:01:33.826Z,8.85
2022-09-14T16:04:05.713Z,8.70
2022-09-14T16:06:34.726Z,7.60
2022-09-14T16:09:03.599Z,11.13
2022-09-14T16:11:31.317Z,9.38
2022-09-14T16:13:58.287Z,8.40
2022-09-14T16:16:27.558Z,9.00
2022-09-14T16:18:54.488Z,8.55
2022-09-14T16:21:24.019Z,9.15
2022-09-14T16:26:25.352Z,8.88
2022-09-14T16:28:53.109Z,8.80
2022-09-14T16:31:25.798Z,9.07
2022-09-14T16:33:55.394Z,9.52
2022-09-14T16:38:51.195Z,9.18
2022-09-14T16:41:18.556Z,8.45
2022-09-14T16:43:45.497Z,11.32
2022-09-14T16:46:16.270Z,9.23
2022-09-14T16:48:50.323Z,9.68
2022-09-14T16:51:19.707Z,9.77
2022-09-14T16:53:47.986Z,10.25
2022-09-14T16:56:19.215Z,9.38
2022-09-14T16:58:47.958Z,10.52
2022-09-14T17:01:19.549Z,9.43
2022-09-14T17:03:48.976Z,9.35
2022-09-14T17:06:21.234Z,9.43
2022-09-14T17:08:48.790Z,10.00
2022-09-14T17:11:16.963Z,8.50
2022-09-14T17:13:45.079Z,8.82
2022-09-14T17:16:18.321Z,10.50
2022-09-14T17:18:48.859Z,10.30
2022-09-14T17:21:22.277Z,9.63
2022-09-14T17:23:49.261Z,9.68
2022-09-14T17:26:19.025Z,9.20
2022-09-14T17:31:19.671Z,12.52
2022-09-14T17:33:47.567Z,10.05
2022-09-14T17:36:15.561Z,9.90
2022-09-14T17:38:43.408Z,10.98
2022-09-14T17:41:13.089Z,11.43
2022-09-14T17:46:12.999Z,11.18
2022-09-14T17:48:41.495Z,8.60
2022-09-14T17:51:10.493Z,9.60
2022-09-14T17:53:43.150Z,9.75
2022-09-14T17:56:13.533Z,9.90
2022-09-14T17:58:42.052Z,10.07
2022-09-14T18:01:18.794Z,9.32
2022-09-14T18:03:51.348Z,10.20
2022-09-14T18:06:19.226Z,9.73
2022-09-14T18:08:46.606Z,9.63
2022-09-14T18:11:17.861Z,11.50
2022-09-14T18:13:47.031Z,11.63
2022-09-14T18:16:16.376Z,10.60
2022-09-14T18:18:43.470Z,9.60
2022-09-14T18:21:11.324Z,9.57
2022-09-14T18:23:38.233Z,10.38
2022-09-14T18:26:06.721Z,10.95
2022-09-14T18:28:35.039Z,9.20
2022-09-14T18:31:02.485Z,10.02
2022-09-14T18:33:29.762Z,8.90
2022-09-14T18:35:57.127Z,11.57
2022-09-14T18:38:24.129Z,8.63
2022-09-14T18:40:51.186Z,9.63
2022-09-14T18:43:18.212Z,11.27
2022-09-14T18:45:45.714Z,10.23
2022-09-14T18:48:13.411Z,8.95
2022-09-14T18:50:41.476Z,9.43
2022-09-14T18:53:08.548Z,9.27
2022-09-14T18:55:35.552Z,8.82
2022-09-14T18:58:02.609Z,9.68
2022-09-14T19:00:29.393Z,9.60
2022-09-14T19:02:57.283Z,9.48
2022-09-14T19:05:25.556Z,9.23
2022-09-14T19:07:52.733Z,9.30
2022-09-14T19:10:19.636Z,9.48
2022-09-14T19:12:46.544Z,9.38
2022-09-14T19:15:13.505Z,9.07
2022-09-14T19:17:40.248Z,9.32
2022-09-14T19:20:08.569Z,8.82
2022-09-14T19:22:35.491Z,12.23
2022-09-14T19:25:02.191Z,9.18
2022-09-14T19:27:29.094Z,9.15
2022-09-14T19:29:55.884Z,9.48
2022-09-14T19:32:22.714Z,9.00
2022-09-14T19:34:49.802Z,9.00
2022-09-14T19:37:16.591Z,9.07
2022-09-14T19:39:43.986Z,9.10
2022-09-14T19:42:11.181Z,9.10
2022-09-14T19:44:37.864Z,8.75
2022-09-14T19:47:04.716Z,9.70
2022-09-14T19:49:31.505Z,10.35
2022-09-14T19:51:58.217Z,10.30
2022-09-14T19:54:25.381Z,8.73
2022-09-14T19:56:52.332Z,9.25
2022-09-14T19:59:19.061Z,10.15
2022-09-14T20:01:46.345Z,10.32
2022-09-14T20:04:14.278Z,8.68
2022-09-14T20:06:43.577Z,8.70
2022-09-14T20:09:12.555Z,9.43
2022-09-14T20:11:40.858Z,10.52
2022-09-14T20:14:10.289Z,10.23
2022-09-14T20:16:40.068Z,8.43
2022-09-14T20:21:37.781Z,9.93
2022-09-14T20:24:21.993Z,9.57
2022-09-14T20:26:50.592Z,10.25
2022-09-14T20:29:19.009Z,11.25
2022-09-14T20:31:46.693Z,9.55
2022-09-14T20:34:16.496Z,9.65
2022-09-14T20:36:43.251Z,8.15
2022-09-14T20:39:10.464Z,9.32
2022-09-14T20:41:37.594Z,8.85
2022-09-14T20:44:05.010Z,9.43
2022-09-14T20:46:35.491Z,9.00
2022-09-14T20:49:04.484Z,9.20
2022-09-14T20:51:31.848Z,9.02
2022-09-14T20:53:58.628Z,9.50
2022-09-14T20:56:30.068Z,9.07
2022-09-14T20:58:59.601Z,9.55
2022-09-14T21:01:28.925Z,8.90
2022-09-14T21:04:01.286Z,9.25
2022-09-14T21:06:28.066Z,8.85
2022-09-14T21:08:55.519Z,9.45
2022-09-14T21:11:25.076Z,9.55
2022-09-14T21:13:53.867Z,10.40
2022-09-14T21:16:22.429Z,11.43
2022-09-14T21:18:58.421Z,10.52
2022-09-14T21:21:25.761Z,10.43
2022-09-14T21:23:53.873Z,9.80
2022-09-14T21:26:20.767Z,11.30
2022-09-14T21:28:47.593Z,9.95
2022-09-14T21:31:17.872Z,9.45
2022-09-14T21:33:47.358Z,8.73
2022-09-14T21:36:16.206Z,10.15
2022-09-14T21:38:43.279Z,10.97
2022-09-14T21:41:11.694Z,11.40
2022-09-14T21:43:40.186Z,10.65
2022-09-14T21:46:08.970Z,10.95
2022-09-14T21:48:37.047Z,9.38
2022-09-14T21:51:18.737Z,13.32
2022-09-14T21:53:57.470Z,14.98
2022-09-14T21:56:26.890Z,17.98
2022-09-14T21:58:58.632Z,22.98
2022-09-14T22:01:26.245Z,22.10
2022-09-14T22:03:54.294Z,22.48
2022-09-14T22:06:24.300Z,20.48
2022-09-14T22:08:52.453Z,19.60
2022-09-14T22:11:23.387Z,20.05
2022-09-14T22:13:55.262Z,18.52
2022-09-14T22:16:23.311Z,18.67
2022-09-14T22:18:55.896Z,18.77
2022-09-14T22:21:24.598Z,21.55
2022-09-14T22:23:56.300Z,22.75
2022-09-14T22:26:24.126Z,22.13
2022-09-14T22:28:53.129Z,22.83
2022-09-14T22:31:22.654Z,20.17
2022-09-14T22:33:50.468Z,38.97
2022-09-14T22:36:17.381Z,23.85
2022-09-14T22:38:44.259Z,22.25
2022-09-14T22:41:14.116Z,22.90
2022-09-14T22:46:09.008Z,26.30
2022-09-14T22:48:37.139Z,30.85
2022-09-14T22:51:05.758Z,29.08
2022-09-14T22:53:34.457Z,29.23
2022-09-14T22:56:11.229Z,29.20
2022-09-14T22:58:38.373Z,29.77
2022-09-14T23:01:10.474Z,28.58
2022-09-14T23:03:37.377Z,32.72
2022-09-14T23:06:05.104Z,35.72
2022-09-14T23:08:32.677Z,60.13
2022-09-14T23:11:06.842Z,29.10
2022-09-14T23:13:41.917Z,30.77
2022-09-14T23:16:20.539Z,32.13
2022-09-14T23:18:52.449Z,30.25
2022-09-14T23:21:20.185Z,29.88
2022-09-14T23:23:54.934Z,30.23
2022-09-14T23:26:23.127Z,28.52
2022-09-14T23:28:59.012Z,28.42
2022-09-14T23:31:26.633Z,25.50
2022-09-14T23:33:57.179Z,22.95
2022-09-14T23:36:24.683Z,27.52
2022-09-14T23:38:52.155Z,21.25
2022-09-14T23:41:20.726Z,20.77
2022-09-14T23:43:48.156Z,20.00
2022-09-14T23:46:15.986Z,20.55
2022-09-14T23:48:42.930Z,20.10
2022-09-14T23:51:10.884Z,19.45
2022-09-14T23:53:38.844Z,19.80
2022-09-14T23:56:06.623Z,20.55
2022-09-14T23:58:33.600Z,19.10
